createdAt,value
2018-12-01T00:00:17.312Z,101311.66
2018-12-01T00:02:45.713Z,101304.78
2018-12-01T00:05:14.113Z,101303.50
2018-12-01T00:07:42.576Z,101304.78
2018-12-01T00:10:10.980Z,101304.69
2018-12-01T00:12:39.348Z,101307.65
2018-12-01T00:15:09.872Z,101303.70
2018-12-01T00:17:38.244Z,101304.92
2018-12-01T00:20:09.696Z,101306.20
2018-12-01T00:22:38.076Z,101300.58
2018-12-01T00:25:07.704Z,101307.38
2018-12-01T00:27:36.164Z,101309.47
2018-12-01T00:30:13.408Z,101303.06
2018-12-01T00:32:42.239Z,101303.14
2018-12-01T00:35:11.573Z,101302.77
2018-12-01T00:37:40.066Z,101297.55
2018-12-01T00:40:18.681Z,101294.11
2018-12-01T00:42:47.075Z,101297.95
2018-12-01T00:45:16.467Z,101300.98
2018-12-01T00:47:45.848Z,101301.69
2018-12-01T00:50:16.209Z,101298.25
2018-12-01T00:52:44.829Z,101301.22
2018-12-01T00:55:14.051Z,101293.13
2018-12-01T00:57:42.444Z,101305.83
2018-12-01T01:00:14.202Z,101302.50
2018-12-01T01:02:42.692Z,101300.81
2018-12-01T01:05:11.141Z,101304.25
2018-12-01T01:07:39.536Z,101304.34
2018-12-01T01:10:09.850Z,101305.63
2018-12-01T01:12:38.253Z,101309.63
2018-12-01T01:15:07.839Z,101305.49
2018-12-01T01:17:36.644Z,101309.40
2018-12-01T01:20:09.021Z,101307.75
2018-12-01T01:22:37.509Z,101304.38
2018-12-01T01:25:06.688Z,101305.26
2018-12-01T01:27:35.080Z,101302.70
2018-12-01T01:30:05.192Z,101302.63
2018-12-01T01:32:33.696Z,101295.83
2018-12-01T01:35:02.555Z,101286.36
2018-12-01T01:37:30.960Z,101278.68
2018-12-01T01:39:59.412Z,101282.05
2018-12-01T01:42:27.816Z,101278.21
2018-12-01T01:44:56.285Z,101278.62
2018-12-01T01:47:24.677Z,101279.89
2018-12-01T01:49:53.041Z,101275.95
2018-12-01T01:52:21.440Z,101275.55
2018-12-01T01:54:49.809Z,101267.00
2018-12-01T01:57:18.192Z,101265.31
2018-12-01T01:59:46.548Z,101261.47
2018-12-01T02:02:14.960Z,101267.09
2018-12-01T02:04:43.331Z,101266.22
2018-12-01T02:07:11.712Z,101279.09
2018-12-01T02:09:40.072Z,101271.50
2018-12-01T02:12:08.481Z,101273.36
2018-12-01T02:14:36.848Z,101274.23
2018-12-01T02:17:05.340Z,101281.61
2018-12-01T02:19:33.793Z,101282.48
2018-12-01T02:22:02.196Z,101282.08
2018-12-01T02:24:30.565Z,101279.62
2018-12-01T02:26:58.963Z,101280.59
2018-12-01T02:29:27.417Z,101278.97
2018-12-01T02:31:55.968Z,101272.20
2018-12-01T02:34:24.360Z,101277.39
2018-12-01T02:36:52.789Z,101276.52
2018-12-01T02:39:21.253Z,101267.55
2018-12-01T02:41:49.639Z,101276.04
2018-12-01T02:44:29.149Z,101266.67
2018-12-01T02:47:10.046Z,101273.55
2018-12-01T02:49:38.530Z,101273.95
2018-12-01T02:52:07.500Z,101265.80
2018-12-01T02:54:35.900Z,101267.55
2018-12-01T02:57:04.309Z,101265.39
2018-12-01T02:59:32.756Z,101264.02
2018-12-01T03:02:01.157Z,101266.98
2018-12-01T03:04:29.624Z,101265.70
2018-12-01T03:06:58.001Z,101269.13
2018-12-01T03:09:26.396Z,101262.43
2018-12-01T03:11:54.869Z,101264.58
2018-12-01T03:14:23.272Z,101259.56
2018-12-01T03:16:51.796Z,101255.72
2018-12-01T03:19:20.237Z,101262.53
2018-12-01T03:21:48.692Z,101264.69
2018-12-01T03:24:17.103Z,101262.53
2018-12-01T03:26:45.484Z,101261.62
2018-12-01T03:29:13.875Z,101261.45
2018-12-01T03:31:42.270Z,101261.05
2018-12-01T03:34:10.721Z,101259.30
2018-12-01T03:36:39.176Z,101265.23
2018-12-01T03:39:09.476Z,101267.28
2018-12-01T03:41:38.223Z,101271.63
2018-12-01T03:44:06.697Z,101277.53
2018-12-01T03:46:35.153Z,101276.66
2018-12-01T03:49:03.553Z,101275.84
2018-12-01T03:51:32.041Z,101274.09
2018-12-01T03:54:00.521Z,101276.75
2018-12-01T03:56:28.976Z,101275.27
2018-12-01T03:58:57.380Z,101270.66
2018-12-01T04:01:25.841Z,101283.92
2018-12-01T04:03:54.254Z,101274.09
2018-12-01T04:06:22.634Z,101274.09
2018-12-01T04:08:51.024Z,101275.78
2018-12-01T04:11:19.397Z,101270.25
2018-12-01T04:13:47.861Z,101272.91
2018-12-01T04:16:16.322Z,101261.77
2018-12-01T04:18:44.733Z,101251.92
2018-12-01T04:21:13.108Z,101263.55
2018-12-01T04:23:41.588Z,101264.83
2018-12-01T04:26:10.045Z,101269.95
2018-12-01T04:28:38.440Z,101275.13
2018-12-01T04:31:06.841Z,101275.23
2018-12-01T04:33:35.237Z,101271.95
2018-12-01T04:36:03.664Z,101269.97
2018-12-01T04:38:32.068Z,101264.44
2018-12-01T04:41:00.436Z,101254.70
2018-12-01T04:43:28.945Z,101259.82
2018-12-01T04:45:57.429Z,101267.56
2018-12-01T04:48:25.827Z,101263.83
2018-12-01T04:50:54.257Z,101268.55
2018-12-01T04:53:22.658Z,101271.20
2018-12-01T04:55:51.344Z,101272.64
2018-12-01T04:58:19.825Z,101271.05
2018-12-01T05:00:48.280Z,101261.28
2018-12-01T05:03:16.701Z,101259.12
2018-12-01T05:05:45.069Z,101263.53
2018-12-01T05:08:13.432Z,101253.19
2018-12-01T05:10:41.829Z,101239.92
2018-12-01T05:13:10.211Z,101243.76
2018-12-01T05:15:38.612Z,101253.91
2018-12-01T05:18:07.557Z,101257.75
2018-12-01T05:20:35.953Z,101254.00
2018-12-01T05:23:04.432Z,101259.59
2018-12-01T05:25:32.920Z,101255.85
2018-12-01T05:28:01.314Z,101257.53
2018-12-01T05:30:29.840Z,101269.53
2018-12-01T05:32:58.249Z,101264.81
2018-12-01T05:35:26.640Z,101271.31
2018-12-01T05:37:56.245Z,101273.06
2018-12-01T05:40:24.636Z,101272.66
2018-12-01T05:42:53.089Z,101285.25
2018-12-01T05:45:22.247Z,101290.03
2018-12-01T05:47:51.184Z,101288.95
2018-12-01T05:50:23.300Z,101296.39
2018-12-01T05:52:52.648Z,101293.92
2018-12-01T05:55:21.058Z,101293.62
2018-12-01T05:57:49.527Z,101292.34
2018-12-01T06:00:18.085Z,101291.05
2018-12-01T06:02:46.483Z,101292.90
2018-12-01T06:05:14.877Z,101291.63
2018-12-01T06:07:43.625Z,101289.52
2018-12-01T06:10:13.972Z,101290.00
2018-12-01T06:12:42.461Z,101294.75
2018-12-01T06:15:12.705Z,101288.81
2018-12-01T06:17:41.168Z,101292.81
2018-12-01T06:20:10.899Z,101289.06
2018-12-01T06:22:39.354Z,101289.53
2018-12-01T06:25:11.146Z,101297.73
2018-12-01T06:27:39.598Z,101302.51
2018-12-01T06:30:12.325Z,101308.55
2018-12-01T06:32:40.776Z,101310.20
2018-12-01T06:35:09.269Z,101306.85
2018-12-01T06:37:37.712Z,101307.26
2018-12-01T06:40:10.338Z,101304.13
2018-12-01T06:42:38.783Z,101307.98
2018-12-01T06:45:09.158Z,101311.98
2018-12-01T06:47:37.592Z,101308.13
2018-12-01T06:50:08.268Z,101317.11
2018-12-01T06:52:36.708Z,101314.45
2018-12-01T06:55:05.288Z,101315.02
2018-12-01T06:57:33.689Z,101315.58
2018-12-01T07:00:02.169Z,101314.39
2018-12-01T07:02:30.580Z,101319.61
2018-12-01T07:04:59.054Z,101324.39
2018-12-01T07:07:27.952Z,101321.62
2018-12-01T07:09:56.384Z,101318.24
2018-12-01T07:12:24.795Z,101320.50
2018-12-01T07:14:53.252Z,101312.90
2018-12-01T07:17:21.652Z,101324.03
2018-12-01T07:19:50.109Z,101315.12
2018-12-01T07:22:18.509Z,101316.59
2018-12-01T07:24:46.977Z,101315.88
2018-12-01T07:27:15.388Z,101315.16
2018-12-01T07:29:43.833Z,101310.44
2018-12-01T07:32:12.337Z,101312.59
2018-12-01T07:34:40.797Z,101305.30
2018-12-01T07:37:09.197Z,101307.52
2018-12-01T07:39:37.677Z,101312.27
2018-12-01T07:42:06.236Z,101316.75
2018-12-01T07:44:34.625Z,101313.97
2018-12-01T07:47:03.029Z,101313.62
2018-12-01T07:49:31.412Z,101315.46
2018-12-01T07:51:59.896Z,101311.70
2018-12-01T07:54:28.348Z,101316.21
2018-12-01T07:56:56.753Z,101314.77
2018-12-01T07:59:25.135Z,101309.47
2018-12-01T08:01:53.816Z,101312.84
2018-12-01T08:04:22.280Z,101303.61
2018-12-01T08:06:51.396Z,101309.54
2018-12-01T08:09:19.853Z,101301.99
2018-12-01T08:11:48.252Z,101300.31
2018-12-01T08:14:16.622Z,101303.50
2018-12-01T08:16:45.022Z,101306.16
2018-12-01T08:19:13.482Z,101300.20
2018-12-01T08:21:41.881Z,101316.30
2018-12-01T08:24:10.332Z,101315.61
2018-12-01T08:26:38.747Z,101319.52
2018-12-01T08:29:07.239Z,101323.92
2018-12-01T08:31:35.697Z,101327.36
2018-12-01T08:34:04.161Z,101318.06
2018-12-01T08:36:32.557Z,101317.27
2018-12-01T08:39:01.041Z,101314.30
2018-12-01T08:41:29.505Z,101317.10
2018-12-01T08:43:57.903Z,101312.52
2018-12-01T08:46:26.368Z,101313.45
2018-12-01T08:48:54.777Z,101305.11
2018-12-01T08:51:23.233Z,101303.91
2018-12-01T08:53:51.633Z,101302.86
2018-12-01T08:56:20.088Z,101306.45
2018-12-01T08:58:48.496Z,101313.01
2018-12-01T09:01:16.878Z,101311.95
2018-12-01T09:03:45.286Z,101315.08
2018-12-01T09:06:13.712Z,101314.66
2018-12-01T09:08:42.122Z,101311.36
2018-12-01T09:11:10.577Z,101312.00
2018-12-01T09:13:38.981Z,101309.11
2018-12-01T09:16:07.858Z,101315.41
2018-12-01T09:18:36.358Z,101307.45
2018-12-01T09:21:05.241Z,101298.69
2018-12-01T09:23:33.731Z,101291.99
2018-12-01T09:26:02.104Z,101303.37
2018-12-01T09:28:30.591Z,101298.45
2018-12-01T09:30:59.047Z,101298.67
2018-12-01T09:33:27.455Z,101293.20
2018-12-01T09:35:57.764Z,101302.33
2018-12-01T09:38:26.263Z,101290.44
2018-12-01T09:40:54.720Z,101289.62
2018-12-01T09:43:23.232Z,101290.03
2018-12-01T09:45:51.677Z,101289.34
2018-12-01T09:48:20.085Z,101284.74
2018-12-01T09:50:48.540Z,101284.91
2018-12-01T09:53:16.944Z,101281.73
2018-12-01T09:55:45.330Z,101274.23
2018-12-01T09:58:14.029Z,101277.39
2018-12-01T10:00:42.404Z,101277.69
2018-12-01T10:03:10.871Z,101270.77
2018-12-01T10:05:39.366Z,101261.56
2018-12-01T10:08:08.079Z,101257.66
2018-12-01T10:10:36.580Z,101258.25
2018-12-01T10:13:05.128Z,101255.95
2018-12-01T10:15:35.716Z,101252.34
2018-12-01T10:18:04.224Z,101252.09
2018-12-01T10:20:33.796Z,101248.28
2018-12-01T10:23:03.860Z,101252.67
2018-12-01T10:25:32.234Z,101239.93
2018-12-01T10:28:00.632Z,101229.63
2018-12-01T10:30:29.065Z,101231.08
2018-12-01T10:32:57.472Z,101222.19
2018-12-01T10:35:26.648Z,101229.23
2018-12-01T10:38:02.518Z,101230.34
2018-12-01T10:40:31.016Z,101226.69
2018-12-01T10:42:59.410Z,101225.20
2018-12-01T10:45:27.845Z,101224.53
2018-12-01T10:47:56.232Z,101228.62
2018-12-01T10:50:24.929Z,101230.03
2018-12-01T10:52:54.323Z,101226.84
2018-12-01T10:55:28.156Z,101233.06
2018-12-01T10:58:01.927Z,101235.41
2018-12-01T11:00:36.086Z,101234.24
2018-12-01T11:03:04.568Z,101230.08
2018-12-01T11:05:33.740Z,101234.95
2018-12-01T11:08:02.234Z,101238.94
2018-12-01T11:10:30.712Z,101229.62
2018-12-01T11:12:59.176Z,101232.45
2018-12-01T11:15:27.677Z,101236.16
2018-12-01T11:17:56.128Z,101242.23
2018-12-01T11:20:24.536Z,101247.45
2018-12-01T11:22:57.766Z,101250.86
2018-12-01T11:25:21.960Z,101264.09
2018-12-01T11:27:49.861Z,101274.30
2018-12-01T11:30:19.085Z,101278.08
2018-12-01T11:32:47.953Z,101273.27
2018-12-01T11:35:16.349Z,101272.05
2018-12-01T11:37:45.217Z,101268.19
2018-12-01T11:40:15.365Z,101266.91
2018-12-01T11:42:43.509Z,101261.79
2018-12-01T11:45:13.108Z,101264.09
2018-12-01T11:47:41.485Z,101268.08
2018-12-01T11:50:11.345Z,101263.03
2018-12-01T11:52:39.802Z,101262.61
2018-12-01T11:55:24.393Z,101255.79
2018-12-01T11:57:53.641Z,101257.95
2018-12-01T12:00:26.869Z,101261.33
2018-12-01T12:02:55.750Z,101266.48
2018-12-01T12:05:24.249Z,101263.91
2018-12-01T12:08:23.993Z,101260.34
2018-12-01T12:10:52.582Z,101260.64
2018-12-01T12:13:22.141Z,101266.19
2018-12-01T12:15:50.651Z,101271.72
2018-12-01T12:18:19.069Z,101270.42
2018-12-01T12:20:47.506Z,101264.86
2018-12-01T12:23:16.822Z,101266.25
2018-12-01T12:25:44.377Z,101267.62
2018-12-01T12:28:12.761Z,101258.70
2018-12-01T12:30:41.224Z,101261.40
2018-12-01T12:33:09.674Z,101262.77
2018-12-01T12:35:38.085Z,101261.92
2018-12-01T12:38:06.549Z,101271.48
2018-12-01T12:40:34.968Z,101268.56
2018-12-01T12:43:03.337Z,101265.14
2018-12-01T12:45:31.806Z,101261.80
2018-12-01T12:48:00.260Z,101262.82
2018-12-01T12:50:28.664Z,101258.30
2018-12-01T12:52:57.228Z,101257.61
2018-12-01T12:55:26.453Z,101260.52
2018-12-01T12:57:54.912Z,101257.31
2018-12-01T13:00:24.367Z,101250.89
2018-12-01T13:02:55.232Z,101255.78
2018-12-01T13:05:25.922Z,101250.76
2018-12-01T13:07:54.293Z,101256.52
2018-12-01T13:10:23.806Z,101255.67
2018-12-01T13:12:52.261Z,101250.93
2018-12-01T13:15:20.633Z,101248.77
2018-12-01T13:17:49.036Z,101244.48
2018-12-01T13:20:19.340Z,101252.64
2018-12-01T13:22:48.972Z,101245.32
2018-12-01T13:25:17.532Z,101243.26
2018-12-01T13:27:48.146Z,101243.72
2018-12-01T13:30:18.076Z,101232.45
2018-12-01T13:32:46.485Z,101232.42
2018-12-01T13:35:14.936Z,101232.35
2018-12-01T13:37:44.084Z,101231.02
2018-12-01T13:40:13.545Z,101233.12
2018-12-01T13:42:42.457Z,101227.16
2018-12-01T13:45:14.789Z,101221.16
2018-12-01T13:47:43.245Z,101218.16
2018-12-01T13:50:13.924Z,101225.97
2018-12-01T13:52:43.248Z,101215.69
2018-12-01T13:55:11.713Z,101220.45
2018-12-01T13:57:40.217Z,101217.88
2018-12-01T14:00:11.950Z,101220.04
2018-12-01T14:02:40.358Z,101218.75
2018-12-01T14:05:10.216Z,101219.63
2018-12-01T14:07:38.631Z,101215.30
2018-12-01T14:10:15.744Z,101214.88
2018-12-01T14:12:45.236Z,101211.81
2018-12-01T14:15:18.608Z,101215.69
2018-12-01T14:17:47.536Z,101213.06
2018-12-01T14:20:16.704Z,101209.09
2018-12-01T14:22:46.121Z,101205.99
2018-12-01T14:25:15.603Z,101204.47
2018-12-01T14:27:47.383Z,101203.38
2018-12-01T14:30:16.774Z,101213.80
2018-12-01T14:32:45.800Z,101218.98
2018-12-01T14:35:19.258Z,101220.68
2018-12-01T14:37:49.412Z,101217.63
2018-12-01T14:40:17.864Z,101210.66
2018-12-01T14:42:46.293Z,101205.90
2018-12-01T14:45:15.961Z,101206.77
2018-12-01T14:47:44.348Z,101212.38
2018-12-01T14:50:15.592Z,101210.25
2018-12-01T14:52:44.691Z,101205.97
2018-12-01T14:55:15.047Z,101204.78
2018-12-01T14:57:43.532Z,101208.70
2018-12-01T15:00:13.456Z,101205.77
2018-12-01T15:02:41.901Z,101206.66
2018-12-01T15:05:10.329Z,101211.55
2018-12-01T15:07:38.778Z,101214.72
2018-12-01T15:10:10.760Z,101213.18
2018-12-01T15:12:39.130Z,101210.41
2018-12-01T15:15:09.145Z,101213.80
2018-12-01T15:17:37.589Z,101207.83
2018-12-01T15:20:23.765Z,101212.64
2018-12-01T15:22:53.309Z,101211.02
2018-12-01T15:25:23.536Z,101206.67
2018-12-01T15:27:52.000Z,101217.83
2018-12-01T15:30:22.365Z,101216.20
2018-12-01T15:32:54.572Z,101216.98
2018-12-01T15:35:22.959Z,101217.04
2018-12-01T15:37:51.453Z,101206.19
2018-12-01T15:40:20.246Z,101206.23
2018-12-01T15:42:48.632Z,101204.19
2018-12-01T15:45:18.273Z,101206.37
2018-12-01T15:47:46.717Z,101205.02
2018-12-01T15:50:20.850Z,101207.52
2018-12-01T15:52:51.042Z,101198.38
2018-12-01T15:55:19.689Z,101203.08
2018-12-01T15:57:48.223Z,101202.59
2018-12-01T16:00:18.680Z,101200.42
2018-12-01T16:02:47.137Z,101193.95
2018-12-01T16:05:16.493Z,101198.68
2018-12-01T16:07:44.951Z,101192.17
2018-12-01T16:10:15.369Z,101193.75
2018-12-01T16:12:44.335Z,101195.71
2018-12-01T16:15:15.325Z,101196.01
2018-12-01T16:17:43.692Z,101196.34
2018-12-01T16:20:14.120Z,101191.83
2018-12-01T16:22:42.571Z,101195.73
2018-12-01T16:25:12.581Z,101182.74
2018-12-01T16:27:41.189Z,101185.23
2018-12-01T16:30:14.368Z,101189.52
2018-12-01T16:32:42.788Z,101187.81
2018-12-01T16:35:11.225Z,101185.73
2018-12-01T16:37:39.625Z,101180.17
2018-12-01T16:40:11.655Z,101181.91
2018-12-01T16:42:40.080Z,101180.78
2018-12-01T16:45:10.780Z,101183.89
2018-12-01T16:47:39.292Z,101174.52
2018-12-01T16:50:10.513Z,101185.83
2018-12-01T16:52:39.020Z,101178.72
2018-12-01T16:55:12.272Z,101178.84
2018-12-01T16:57:40.699Z,101182.82
2018-12-01T17:00:13.556Z,101174.34
2018-12-01T17:02:42.088Z,101177.91
2018-12-01T17:05:11.945Z,101172.00
2018-12-01T17:07:40.348Z,101173.82
2018-12-01T17:10:23.673Z,101176.09
2018-12-01T17:12:54.307Z,101167.61
2018-12-01T17:15:22.894Z,101160.75
2018-12-01T17:17:51.299Z,101162.98
2018-12-01T17:20:20.048Z,101157.50
2018-12-01T17:22:52.859Z,101153.64
2018-12-01T17:25:21.317Z,101162.72
2018-12-01T17:27:50.782Z,101154.58
2018-12-01T17:30:26.066Z,101152.42
2018-12-01T17:32:55.044Z,101151.59
2018-12-01T17:35:24.916Z,101149.43
2018-12-01T17:37:57.468Z,101146.86
2018-12-01T17:40:36.581Z,101147.69
2018-12-01T17:43:06.824Z,101146.33
2018-12-01T17:45:35.202Z,101140.23
2018-12-01T17:48:03.981Z,101129.81
2018-12-01T17:50:32.453Z,101126.27
2018-12-01T17:53:00.825Z,101125.66
2018-12-01T17:55:30.244Z,101119.98
2018-12-01T17:57:58.717Z,101119.83
2018-12-01T18:00:28.338Z,101117.59
2018-12-01T18:02:59.371Z,101112.33
2018-12-01T18:05:34.512Z,101109.22
2018-12-01T18:08:03.284Z,101105.21
2018-12-01T18:10:31.681Z,101104.68
2018-12-01T18:13:00.053Z,101100.78
2018-12-01T18:15:28.469Z,101105.44
2018-12-01T18:17:56.847Z,101102.94
2018-12-01T18:20:25.446Z,101101.23
2018-12-01T18:22:57.243Z,101103.47
2018-12-01T18:25:26.160Z,101102.30
2018-12-01T18:27:56.067Z,101092.95
2018-12-01T18:30:28.965Z,101092.61
2018-12-01T18:32:59.157Z,101091.44
2018-12-01T18:35:27.552Z,101096.66
2018-12-01T18:37:55.937Z,101094.99
2018-12-01T18:40:24.332Z,101094.20
2018-12-01T18:42:52.802Z,101091.73
2018-12-01T18:45:22.348Z,101087.04
2018-12-01T18:47:50.741Z,101088.33
2018-12-01T18:50:19.880Z,101084.54
2018-12-01T18:52:59.480Z,101082.42
2018-12-01T18:55:29.260Z,101078.25
2018-12-01T18:57:57.715Z,101081.69
2018-12-01T19:00:32.139Z,101085.28
2018-12-01T19:03:00.517Z,101090.02
2018-12-01T19:05:29.045Z,101089.56
2018-12-01T19:07:57.414Z,101079.27
2018-12-01T19:10:25.896Z,101075.44
2018-12-01T19:12:54.293Z,101070.29
2018-12-01T19:15:22.727Z,101083.66
2018-12-01T19:17:51.116Z,101077.25
2018-12-01T19:20:19.493Z,101063.09
2018-12-01T19:22:49.149Z,101054.15
2018-12-01T19:25:20.677Z,101049.88
2018-12-01T19:27:49.664Z,101044.69
2018-12-01T19:30:19.049Z,101061.42
2018-12-01T19:32:52.874Z,101060.93
2018-12-01T19:35:21.328Z,101068.23
2018-12-01T19:37:50.865Z,101065.21
2018-12-01T19:40:28.554Z,101066.05
2018-12-01T19:42:54.004Z,101056.20
2018-12-01T19:45:22.378Z,101057.48
2018-12-01T19:47:50.772Z,101055.25
2018-12-01T19:50:24.204Z,101065.14
2018-12-01T19:52:52.609Z,101064.69
2018-12-01T19:55:22.751Z,101063.33
2018-12-01T19:57:51.877Z,101060.71
2018-12-01T20:00:21.488Z,101059.42
2018-12-01T20:02:50.205Z,101058.03
2018-12-01T20:05:19.397Z,101054.52
2018-12-01T20:07:48.422Z,101047.13
2018-12-01T20:10:19.305Z,101056.14
2018-12-01T20:13:53.845Z,101051.38
2018-12-01T20:16:26.440Z,101051.64
2018-12-01T20:18:55.040Z,101035.67
2018-12-01T20:21:23.816Z,101042.06
2018-12-01T20:23:52.320Z,101045.93
2018-12-01T20:26:20.862Z,101037.30
2018-12-01T20:28:49.388Z,101046.31
2018-12-01T20:31:18.698Z,101024.97
2018-12-01T20:33:47.145Z,101037.91
2018-12-01T20:36:20.424Z,101048.50
2018-12-01T20:38:58.464Z,101048.84
2018-12-01T20:41:26.928Z,101041.81
2018-12-01T20:43:55.559Z,101042.57
2018-12-01T20:46:23.997Z,101043.44
2018-12-01T20:48:52.781Z,101034.39
2018-12-01T20:51:21.153Z,101035.19
2018-12-01T20:53:50.081Z,101027.05
2018-12-01T20:56:20.677Z,101022.66
2018-12-01T20:58:49.093Z,101027.88
2018-12-01T21:01:17.548Z,101028.30
2018-12-01T21:03:45.958Z,101032.58
2018-12-01T21:06:14.393Z,101023.08
2018-12-01T21:08:42.783Z,101015.36
2018-12-01T21:11:13.040Z,101016.65
2018-12-01T21:13:41.537Z,101006.77
2018-12-01T21:16:09.918Z,101005.90
2018-12-01T21:18:38.351Z,101005.03
2018-12-01T21:21:06.838Z,101000.22
2018-12-01T21:23:35.218Z,100998.94
2018-12-01T21:26:03.624Z,100992.39
2018-12-01T21:28:32.013Z,100993.16
2018-12-01T21:31:00.441Z,100987.86
2018-12-01T21:33:31.488Z,100984.72
2018-12-01T21:35:59.911Z,100982.91
2018-12-01T21:38:28.280Z,100991.84
2018-12-01T21:40:56.673Z,100993.01
2018-12-01T21:43:25.121Z,100994.11
2018-12-01T21:45:53.520Z,100996.98
2018-12-01T21:48:21.982Z,101000.69
2018-12-01T21:50:50.455Z,100991.57
2018-12-01T21:53:23.288Z,100990.28
2018-12-01T21:55:51.779Z,100986.92
2018-12-01T21:58:20.229Z,100973.16
2018-12-01T22:00:52.280Z,100968.61
2018-12-01T22:03:21.105Z,100956.28
2018-12-01T22:05:53.867Z,100955.98
2018-12-01T22:08:22.235Z,100950.98
2018-12-01T22:10:53.298Z,100948.52
2018-12-01T22:13:22.185Z,100948.55
2018-12-01T22:15:50.208Z,100942.68
2018-12-01T22:18:18.820Z,100934.12
2018-12-01T22:20:47.220Z,100945.71
2018-12-01T22:23:15.686Z,100941.85
2018-12-01T22:25:44.088Z,100935.42
2018-12-01T22:28:13.461Z,100924.71
2018-12-01T22:30:43.097Z,100918.70
2018-12-01T22:33:15.141Z,100909.69
2018-12-01T22:35:45.204Z,100901.90
2018-12-01T22:38:13.752Z,100896.75
2018-12-01T22:40:42.945Z,100898.88
2018-12-01T22:43:11.349Z,100904.02
2018-12-01T22:45:39.797Z,100896.23
2018-12-01T22:48:09.858Z,100889.80
2018-12-01T22:50:39.320Z,100884.20
2018-12-01T22:53:07.732Z,100883.67
2018-12-01T22:55:36.113Z,100887.87
2018-12-01T22:58:07.663Z,100880.58
2018-12-01T23:00:48.372Z,100884.78
2018-12-01T23:03:16.809Z,100882.20
2018-12-01T23:05:45.273Z,100881.76
2018-12-01T23:08:14.890Z,100887.77
2018-12-01T23:10:43.270Z,100883.91
2018-12-01T23:13:11.670Z,100871.92
2018-12-01T23:15:40.128Z,100874.91
2018-12-01T23:18:10.064Z,100874.56
2018-12-01T23:20:39.242Z,100866.84
2018-12-01T23:23:08.049Z,100866.02
2018-12-01T23:25:36.428Z,100869.00
2018-12-01T23:28:05.024Z,100868.23
2018-12-01T23:30:33.424Z,100871.23
2018-12-01T23:33:05.270Z,100861.73
2018-12-01T23:35:33.641Z,100854.96
2018-12-01T23:38:02.058Z,100851.52
2018-12-01T23:40:30.473Z,100853.33
2018-12-01T23:42:58.859Z,100846.03
2018-12-01T23:45:27.259Z,100836.53
2018-12-01T23:47:55.717Z,100831.36
2018-12-01T23:50:25.249Z,100829.16
2018-12-01T23:52:55.772Z,100822.70
2018-12-01T23:55:24.253Z,100827.36
2018-12-01T23:57:52.712Z,100818.31
